createdAt,value
2018-12-17T00:01:57.281Z,21.90
2018-12-17T00:05:00.255Z,21.90
2018-12-17T00:08:04.149Z,21.90
2018-12-17T00:11:06.939Z,22.00
2018-12-17T00:14:09.478Z,21.90
2018-12-17T00:17:13.492Z,21.90
2018-12-17T00:20:17.261Z,21.90
2018-12-17T00:23:19.984Z,21.90
2018-12-17T00:26:23.368Z,21.90
2018-12-17T00:29:27.474Z,21.90
2018-12-17T00:32:30.003Z,21.90
2018-12-17T00:35:33.240Z,21.90
2018-12-17T00:38:35.784Z,21.90
2018-12-17T00:41:41.678Z,21.90
2018-12-17T00:44:44.702Z,21.90
2018-12-17T00:47:47.496Z,21.90
2018-12-17T00:50:51.685Z,21.90
2018-12-17T00:53:56.600Z,21.90
2018-12-17T01:00:27.033Z,21.80
2018-12-17T01:03:30.541Z,21.80
2018-12-17T01:06:33.086Z,21.80
2018-12-17T01:09:35.605Z,21.80
2018-12-17T01:12:38.212Z,21.90
2018-12-17T01:15:40.749Z,21.80
2018-12-17T01:18:43.342Z,21.80
2018-12-17T01:21:45.998Z,21.90
2018-12-17T01:24:48.460Z,21.90
2018-12-17T01:27:50.961Z,21.90
2018-12-17T01:30:53.544Z,21.80
2018-12-17T01:33:59.361Z,21.80
2018-12-17T01:37:01.854Z,21.90
2018-12-17T01:40:06.055Z,21.80
2018-12-17T01:43:08.760Z,21.90
2018-12-17T01:46:13.504Z,21.80
2018-12-17T01:49:15.950Z,21.80
2018-12-17T01:52:18.534Z,21.80
2018-12-17T01:55:21.018Z,21.80
2018-12-17T01:58:29.153Z,21.80
2018-12-17T02:01:28.283Z,21.80
2018-12-17T02:04:30.850Z,21.80
2018-12-17T02:07:34.466Z,21.80
2018-12-17T02:10:36.990Z,21.80
2018-12-17T02:13:40.552Z,21.80
2018-12-17T02:16:43.194Z,21.80
2018-12-17T02:19:47.293Z,21.80
2018-12-17T02:22:54.056Z,21.80
2018-12-17T02:25:56.572Z,21.80
2018-12-17T02:29:01.081Z,21.80
2018-12-17T02:32:03.655Z,21.80
2018-12-17T02:35:06.522Z,21.80
2018-12-17T02:38:09.081Z,21.80
2018-12-17T02:41:13.609Z,21.80
2018-12-17T02:44:16.611Z,21.80
2018-12-17T02:47:19.999Z,21.80
2018-12-17T02:50:22.641Z,21.80
2018-12-17T02:53:30.931Z,21.80
2018-12-17T02:56:37.462Z,21.80
2018-12-17T02:59:44.929Z,21.80
2018-12-17T03:02:56.699Z,21.80
2018-12-17T03:06:10.889Z,21.80
2018-12-17T03:09:15.867Z,21.80
2018-12-17T03:12:18.451Z,21.80
2018-12-17T03:15:21.388Z,21.80
2018-12-17T03:18:23.874Z,21.80
2018-12-17T03:21:27.355Z,21.80
2018-12-17T03:24:30.909Z,21.80
2018-12-17T03:27:34.340Z,21.70
2018-12-17T03:30:37.639Z,21.80
2018-12-17T03:33:40.337Z,21.70
2018-12-17T03:36:48.044Z,21.80
2018-12-17T03:39:50.622Z,21.70
2018-12-17T03:42:54.148Z,21.70
2018-12-17T03:45:56.611Z,21.70
2018-12-17T03:49:00.254Z,21.70
2018-12-17T03:52:02.742Z,21.70
2018-12-17T03:55:05.236Z,21.70
2018-12-17T03:58:08.765Z,21.70
2018-12-17T04:01:11.358Z,21.70
2018-12-17T04:04:13.885Z,21.70
2018-12-17T04:07:19.564Z,21.70
2018-12-17T04:10:22.075Z,21.70
2018-12-17T04:13:25.754Z,21.70
2018-12-17T04:16:28.247Z,21.70
2018-12-17T04:19:30.782Z,21.70
2018-12-17T04:22:33.546Z,21.70
2018-12-17T04:25:36.051Z,21.70
2018-12-17T04:28:38.592Z,21.70
2018-12-17T04:31:41.299Z,21.70
2018-12-17T04:34:48.631Z,21.70
2018-12-17T04:37:51.099Z,21.70
2018-12-17T04:40:54.034Z,21.70
2018-12-17T04:44:00.854Z,21.70
2018-12-17T04:47:06.884Z,21.70
2018-12-17T04:50:15.338Z,21.70
2018-12-17T04:53:21.130Z,21.70
2018-12-17T04:56:27.240Z,21.70
2018-12-17T04:59:35.047Z,21.70
2018-12-17T05:02:38.188Z,21.70
2018-12-17T05:05:42.050Z,21.70
2018-12-17T05:08:47.135Z,21.70
2018-12-17T05:11:49.827Z,21.70
2018-12-17T05:14:52.408Z,21.70
2018-12-17T05:18:00.255Z,21.70
2018-12-17T05:21:13.881Z,21.70
2018-12-17T05:24:19.862Z,21.70
2018-12-17T05:27:32.397Z,21.70
2018-12-17T05:30:36.971Z,21.70
2018-12-17T05:33:44.756Z,21.70
2018-12-17T05:36:56.174Z,21.70
2018-12-17T05:40:03.050Z,21.70
2018-12-17T05:43:14.951Z,21.70
2018-12-17T05:46:32.344Z,21.70
2018-12-17T05:49:37.973Z,21.70
2018-12-17T05:52:44.808Z,21.70
2018-12-17T05:55:50.183Z,21.70
2018-12-17T05:58:54.785Z,21.70
2018-12-17T06:02:00.901Z,21.70
2018-12-17T06:05:08.460Z,21.70
2018-12-17T06:08:15.440Z,21.70
2018-12-17T06:11:19.715Z,21.70
2018-12-17T06:17:34.729Z,21.70
2018-12-17T06:20:38.491Z,21.70
2018-12-17T06:23:48.385Z,21.70
2018-12-17T06:26:51.192Z,21.70
2018-12-17T06:29:54.059Z,21.70
2018-12-17T06:32:56.867Z,21.70
2018-12-17T06:35:59.423Z,21.70
2018-12-17T06:39:04.821Z,21.70
2018-12-17T06:42:07.970Z,21.70
2018-12-17T06:45:11.844Z,21.70
2018-12-17T06:48:17.322Z,21.60
2018-12-17T06:51:23.083Z,22.10
2018-12-17T06:54:25.843Z,21.70
2018-12-17T06:57:28.332Z,21.70
2018-12-17T07:00:35.531Z,21.70
2018-12-17T07:03:38.052Z,21.70
2018-12-17T07:06:40.618Z,21.70
2018-12-17T07:09:43.524Z,21.70
2018-12-17T07:12:47.214Z,21.70
2018-12-17T07:15:49.771Z,21.70
2018-12-17T07:18:53.543Z,21.70
2018-12-17T07:21:56.103Z,21.70
2018-12-17T07:25:01.960Z,21.70
2018-12-17T07:28:05.559Z,21.70
2018-12-17T07:31:08.161Z,21.70
2018-12-17T07:34:11.434Z,21.60
2018-12-17T07:37:14.641Z,21.70
2018-12-17T07:40:33.165Z,21.70
2018-12-17T08:23:51.182Z,21.60
2018-12-17T08:48:17.904Z,21.60
2018-12-17T09:12:47.928Z,21.60
2018-12-17T09:15:51.605Z,21.60
2018-12-17T09:18:54.745Z,21.60
2018-12-17T09:21:57.219Z,21.60
2018-12-17T09:24:59.770Z,21.60
2018-12-17T09:28:02.296Z,21.60
2018-12-17T09:31:04.760Z,21.60
2018-12-17T09:34:10.110Z,21.60
2018-12-17T09:37:13.501Z,21.60
2018-12-17T09:40:15.959Z,21.60
2018-12-17T09:43:19.298Z,21.70
2018-12-17T09:46:22.796Z,21.60
2018-12-17T09:49:26.775Z,21.70
2018-12-17T09:52:30.210Z,21.70
2018-12-17T09:55:33.710Z,21.70
2018-12-17T09:58:36.176Z,21.70
2018-12-17T10:01:40.513Z,21.70
2018-12-17T10:04:44.007Z,21.70
2018-12-17T10:07:50.400Z,21.80
2018-12-17T10:10:52.854Z,21.70
2018-12-17T10:13:56.262Z,21.80
2018-12-17T10:16:59.664Z,21.80
2018-12-17T10:20:02.839Z,21.80
2018-12-17T10:23:05.378Z,21.80
2018-12-17T10:26:08.214Z,21.80
2018-12-17T10:29:10.690Z,21.80
2018-12-17T10:32:13.178Z,21.80
2018-12-17T10:35:15.677Z,21.80
2018-12-17T10:38:18.240Z,21.80
2018-12-17T10:41:20.731Z,21.80
2018-12-17T10:44:24.605Z,21.80
2018-12-17T10:47:27.136Z,21.80
2018-12-17T10:50:29.612Z,21.80
2018-12-17T10:53:32.065Z,21.80
2018-12-17T10:56:34.556Z,21.80
2018-12-17T10:59:37.076Z,21.80
2018-12-17T11:02:39.548Z,21.80
2018-12-17T11:05:45.382Z,21.80
2018-12-17T11:08:49.561Z,21.80
2018-12-17T11:11:53.098Z,21.80
2018-12-17T11:14:55.558Z,21.80
2018-12-17T11:18:00.052Z,21.80
2018-12-17T11:21:02.532Z,21.80
2018-12-17T11:24:05.000Z,21.80
2018-12-17T11:27:09.287Z,21.80
2018-12-17T11:30:12.910Z,21.80
2018-12-17T11:33:15.620Z,21.80
2018-12-17T11:36:19.020Z,21.80
2018-12-17T11:39:22.610Z,21.90
2018-12-17T11:42:25.058Z,21.90
2018-12-17T11:45:28.490Z,21.90
2018-12-17T11:48:32.160Z,21.90
2018-12-17T12:27:02.424Z,21.90
2018-12-17T12:30:08.587Z,21.70
2018-12-17T12:33:13.568Z,21.70
2018-12-17T13:27:44.516Z,21.90
2018-12-17T14:10:25.231Z,21.90
2018-12-17T14:13:29.319Z,21.90
2018-12-17T14:23:29.199Z,22.00
2018-12-17T14:26:35.262Z,22.00
2018-12-17T14:29:38.708Z,22.00
2018-12-17T14:32:41.318Z,22.00
2018-12-17T14:35:49.532Z,22.00
2018-12-17T14:38:52.083Z,22.00
2018-12-17T14:42:03.169Z,22.00
2018-12-17T14:45:06.440Z,22.00
2018-12-17T15:07:55.282Z,21.90
2018-12-17T15:10:57.874Z,21.70
2018-12-17T15:14:00.356Z,21.80
2018-12-17T15:17:02.835Z,21.80
2018-12-17T15:20:08.937Z,21.90
2018-12-17T15:23:11.569Z,22.00
2018-12-17T15:26:14.105Z,22.10
2018-12-17T15:29:17.057Z,22.10
2018-12-17T15:32:19.577Z,22.20
2018-12-17T15:35:22.367Z,22.20
2018-12-17T15:38:27.208Z,22.20
2018-12-17T15:41:29.947Z,22.30
2018-12-17T15:44:36.057Z,22.30
2018-12-17T15:51:39.314Z,22.40
2018-12-17T15:54:41.775Z,22.40
2018-12-17T15:57:44.258Z,22.40
2018-12-17T16:00:46.820Z,22.40
2018-12-17T16:03:49.270Z,22.40
2018-12-17T16:06:51.735Z,22.40
2018-12-17T16:09:55.501Z,22.40
2018-12-17T16:12:58.000Z,22.40
2018-12-17T16:16:00.546Z,22.40
2018-12-17T16:19:03.028Z,22.40
2018-12-17T16:22:05.499Z,22.40
2018-12-17T16:25:07.985Z,22.40
2018-12-17T16:28:10.480Z,22.40
2018-12-17T16:31:12.936Z,22.40
2018-12-17T16:34:15.414Z,22.50
2018-12-17T16:37:21.367Z,22.50
2018-12-17T16:40:24.173Z,22.50
2018-12-17T16:43:27.809Z,22.60
2018-12-17T16:46:30.274Z,22.60
2018-12-17T16:49:32.737Z,22.60
2018-12-17T16:52:35.196Z,22.60
2018-12-17T16:55:37.662Z,22.60
2018-12-17T16:58:40.268Z,22.60
2018-12-17T17:01:42.835Z,22.60
2018-12-17T17:04:45.865Z,22.60
2018-12-17T17:07:49.348Z,22.60
2018-12-17T17:10:51.795Z,22.60
2018-12-17T17:13:54.284Z,22.50
2018-12-17T17:16:57.288Z,22.50
